sensor_id;sensor_type;location;lat;lon;timestamp;pressure;altitude;pressure_sealevel;temperature;humidity
19210;BME280;9738;51.654;14.238;2023-04-23T00:00:55;99758.53;;;13.40;68.32
19210;BME280;9738;51.654;14.238;2023-04-23T00:03:23;99747.81;;;13.40;67.47
19210;BME280;9738;51.654;14.238;2023-04-23T00:05:51;99748.72;;;13.47;67.52
19210;BME280;9738;51.654;14.238;2023-04-23T00:08:17;99749.94;;;13.45;67.10
19210;BME280;9738;51.654;14.238;2023-04-23T00:10:44;99740.78;;;13.39;67.79
19210;BME280;9738;51.654;14.238;2023-04-23T00:13:10;99738.72;;;13.41;68.18
19210;BME280;9738;51.654;14.238;2023-04-23T00:15:37;99732.53;;;13.41;67.97
19210;BME280;9738;51.654;14.238;2023-04-23T00:18:02;99735.69;;;13.44;68.38
19210;BME280;9738;51.654;14.238;2023-04-23T00:20:28;99729.03;;;13.40;68.37
19210;BME280;9738;51.654;14.238;2023-04-23T00:22:55;99727.19;;;13.41;67.79
19210;BME280;9738;51.654;14.238;2023-04-23T00:25:20;99726.00;;;13.43;68.18
19210;BME280;9738;51.654;14.238;2023-04-23T00:27:46;99716.91;;;13.44;67.82
19210;BME280;9738;51.654;14.238;2023-04-23T00:30:13;99721.91;;;13.47;67.71
19210;BME280;9738;51.654;14.238;2023-04-23T00:32:39;99713.22;;;13.45;68.60
19210;BME280;9738;51.654;14.238;2023-04-23T00:35:05;99714.22;;;13.44;68.92
19210;BME280;9738;51.654;14.238;2023-04-23T00:37:32;99710.34;;;13.47;68.00
19210;BME280;9738;51.654;14.238;2023-04-23T00:39:57;99717.34;;;13.48;68.46
19210;BME280;9738;51.654;14.238;2023-04-23T00:42:24;99706.47;;;13.49;68.72
19210;BME280;9738;51.654;14.238;2023-04-23T00:44:50;99702.56;;;13.52;68.31
19210;BME280;9738;51.654;14.238;2023-04-23T00:47:16;99707.94;;;13.52;68.51
19210;BME280;9738;51.654;14.238;2023-04-23T00:49:42;99707.94;;;13.52;68.08
19210;BME280;9738;51.654;14.238;2023-04-23T00:52:09;99703.19;;;13.54;68.63
19210;BME280;9738;51.654;14.238;2023-04-23T00:54:35;99703.03;;;13.56;68.13
19210;BME280;9738;51.654;14.238;2023-04-23T00:57:00;99693.56;;;13.60;68.03
19210;BME280;9738;51.654;14.238;2023-04-23T00:59:28;99700.59;;;13.61;67.78
19210;BME280;9738;51.654;14.238;2023-04-23T01:01:55;99704.28;;;13.60;68.28
19210;BME280;9738;51.654;14.238;2023-04-23T01:04:21;99704.97;;;13.62;67.97
19210;BME280;9738;51.654;14.238;2023-04-23T01:06:48;99700.22;;;13.64;68.17
19210;BME280;9738;51.654;14.238;2023-04-23T01:09:14;99701.53;;;13.68;68.10
19210;BME280;9738;51.654;14.238;2023-04-23T01:11:42;99700.66;;;13.67;67.76
19210;BME280;9738;51.654;14.238;2023-04-23T01:14:09;99690.78;;;13.68;68.03
19210;BME280;9738;51.654;14.238;2023-04-23T01:16:36;99700.09;;;13.72;68.43
19210;BME280;9738;51.654;14.238;2023-04-23T01:19:07;99696.03;;;13.76;67.80
19210;BME280;9738;51.654;14.238;2023-04-23T01:21:36;99709.25;;;13.77;68.10
19210;BME280;9738;51.654;14.238;2023-04-23T01:24:03;99707.41;;;13.78;67.89
19210;BME280;9738;51.654;14.238;2023-04-23T01:26:29;99709.88;;;13.79;68.15
19210;BME280;9738;51.654;14.238;2023-04-23T01:28:55;99702.50;;;13.82;68.46
19210;BME280;9738;51.654;14.238;2023-04-23T01:31:22;99710.97;;;13.85;67.98
19210;BME280;9738;51.654;14.238;2023-04-23T01:33:49;99708.69;;;13.82;68.28
19210;BME280;9738;51.654;14.238;2023-04-23T01:36:18;99708.50;;;13.84;68.23
19210;BME280;9738;51.654;14.238;2023-04-23T01:38:44;99708.69;;;13.82;68.51
19210;BME280;9738;51.654;14.238;2023-04-23T01:41:09;99702.84;;;13.78;68.59
19210;BME280;9738;51.654;14.238;2023-04-23T01:43:36;99703.06;;;13.77;69.29
19210;BME280;9738;51.654;14.238;2023-04-23T01:46:02;99710.28;;;13.76;68.77
19210;BME280;9738;51.654;14.238;2023-04-23T01:48:28;99701.53;;;13.68;69.49
19210;BME280;9738;51.654;14.238;2023-04-23T01:50:55;99703.53;;;13.66;69.67
19210;BME280;9738;51.654;14.238;2023-04-23T01:53:21;99706.09;;;13.74;69.55
19210;BME280;9738;51.654;14.238;2023-04-23T01:55:47;99706.22;;;13.66;69.70
19210;BME280;9738;51.654;14.238;2023-04-23T01:58:13;99703.47;;;13.59;70.16
19210;BME280;9738;51.654;14.238;2023-04-23T02:00:39;99693.47;;;13.53;70.62
19210;BME280;9738;51.654;14.238;2023-04-23T02:03:05;99706.47;;;13.49;70.82
19210;BME280;9738;51.654;14.238;2023-04-23T02:05:34;99702.09;;;13.48;70.80
19210;BME280;9738;51.654;14.238;2023-04-23T02:08:00;99695.72;;;13.49;71.22
19210;BME280;9738;51.654;14.238;2023-04-23T02:10:26;99698.41;;;13.49;71.19
19210;BME280;9738;51.654;14.238;2023-04-23T02:12:53;99701.66;;;13.45;71.51
19210;BME280;9738;51.654;14.238;2023-04-23T02:15:18;99687.78;;;13.41;72.13
19210;BME280;9738;51.654;14.238;2023-04-23T02:17:44;99695.38;;;13.38;71.91
19210;BME280;9738;51.654;14.238;2023-04-23T02:20:11;99693.13;;;13.41;72.21
19210;BME280;9738;51.654;14.238;2023-04-23T02:22:39;99707.38;;;13.42;72.12
19210;BME280;9738;51.654;14.238;2023-04-23T02:25:06;99701.94;;;13.35;72.48
19210;BME280;9738;51.654;14.238;2023-04-23T02:27:33;99697.59;;;13.34;72.47
19210;BME280;9738;51.654;14.238;2023-04-23T02:29:59;99703.03;;;13.41;72.57
19210;BME280;9738;51.654;14.238;2023-04-23T02:32:25;99691.28;;;13.42;72.14
19210;BME280;9738;51.654;14.238;2023-04-23T02:34:52;99700.75;;;13.38;72.44
19210;BME280;9738;51.654;14.238;2023-04-23T02:37:18;99701.38;;;13.40;72.93
19210;BME280;9738;51.654;14.238;2023-04-23T02:39:44;99693.34;;;13.40;72.80
19210;BME280;9738;51.654;14.238;2023-04-23T02:42:12;99697.88;;;13.39;73.14
19210;BME280;9738;51.654;14.238;2023-04-23T02:44:38;99687.78;;;13.41;73.41
19210;BME280;9738;51.654;14.238;2023-04-23T02:47:04;99692.63;;;13.31;74.66
19210;BME280;9738;51.654;14.238;2023-04-23T02:49:30;99688.09;;;13.32;73.63
19210;BME280;9738;51.654;14.238;2023-04-23T02:51:56;99694.00;;;13.27;74.05
19210;BME280;9738;51.654;14.238;2023-04-23T02:54:22;99689.66;;;13.26;74.05
19210;BME280;9738;51.654;14.238;2023-04-23T02:56:48;99694.19;;;13.25;73.98
19210;BME280;9738;51.654;14.238;2023-04-23T02:59:14;99689.47;;;13.28;73.94
19210;BME280;9738;51.654;14.238;2023-04-23T03:01:40;99689.03;;;13.24;74.66
19210;BME280;9738;51.654;14.238;2023-04-23T03:04:06;99691.50;;;13.25;74.29
19210;BME280;9738;51.654;14.238;2023-04-23T03:06:32;99697.06;;;13.24;74.59
19210;BME280;9738;51.654;14.238;2023-04-23T03:09:00;99697.59;;;13.19;74.21
19210;BME280;9738;51.654;14.238;2023-04-23T03:11:26;99694.28;;;13.17;74.78
19210;BME280;9738;51.654;14.238;2023-04-23T03:13:52;99688.06;;;13.17;74.67
19210;BME280;9738;51.654;14.238;2023-04-23T03:16:18;99692.56;;;13.16;75.00
19210;BME280;9738;51.654;14.238;2023-04-23T03:18:44;99693.44;;;13.17;75.37
19210;BME280;9738;51.654;14.238;2023-04-23T03:21:10;99692.78;;;13.15;75.34
19210;BME280;9738;51.654;14.238;2023-04-23T03:23:36;99686.88;;;13.05;75.78
19210;BME280;9738;51.654;14.238;2023-04-23T03:26:02;99687.63;;;12.98;76.17
19210;BME280;9738;51.654;14.238;2023-04-23T03:28:29;99684.56;;;13.02;76.32
19210;BME280;9738;51.654;14.238;2023-04-23T03:30:56;99693.91;;;13.06;76.27
19210;BME280;9738;51.654;14.238;2023-04-23T03:33:21;99680.84;;;13.03;76.27
19210;BME280;9738;51.654;14.238;2023-04-23T03:35:47;99689.09;;;13.01;76.48
19210;BME280;9738;51.654;14.238;2023-04-23T03:38:13;99674.56;;;12.95;76.91
19210;BME280;9738;51.654;14.238;2023-04-23T03:40:39;99684.66;;;12.93;77.21
19210;BME280;9738;51.654;14.238;2023-04-23T03:43:05;99685.41;;;12.87;77.78
19210;BME280;9738;51.654;14.238;2023-04-23T03:45:32;99685.19;;;12.89;77.86
19210;BME280;9738;51.654;14.238;2023-04-23T03:47:57;99675.69;;;12.86;78.44
19210;BME280;9738;51.654;14.238;2023-04-23T03:50:23;99670.50;;;12.85;78.61
19210;BME280;9738;51.654;14.238;2023-04-23T03:52:49;99671.59;;;12.90;78.98
19210;BME280;9738;51.654;14.238;2023-04-23T03:55:15;99673.94;;;12.93;78.82
19210;BME280;9738;51.654;14.238;2023-04-23T03:57:41;99677.06;;;12.97;79.21
19210;BME280;9738;51.654;14.238;2023-04-23T04:00:07;99669.50;;;13.01;79.12
19210;BME280;9738;51.654;14.238;2023-04-23T04:02:36;99669.38;;;13.09;78.98
19210;BME280;9738;51.654;14.238;2023-04-23T04:05:04;99670.50;;;13.14;78.93
19210;BME280;9738;51.654;14.238;2023-04-23T04:07:30;99666.97;;;13.14;78.77
19210;BME280;9738;51.654;14.238;2023-04-23T04:09:56;99674.84;;;13.15;78.90
19210;BME280;9738;51.654;14.238;2023-04-23T04:12:22;99673.81;;;13.16;79.35
19210;BME280;9738;51.654;14.238;2023-04-23T04:14:49;99671.13;;;13.16;79.70
19210;BME280;9738;51.654;14.238;2023-04-23T04:17:14;99675.31;;;13.19;79.31
19210;BME280;9738;51.654;14.238;2023-04-23T04:19:41;99672.94;;;13.24;79.06
19210;BME280;9738;51.654;14.238;2023-04-23T04:22:08;99680.16;;;13.23;79.59
19210;BME280;9738;51.654;14.238;2023-04-23T04:24:34;99670.50;;;13.29;79.07
19210;BME280;9738;51.654;14.238;2023-04-23T04:27:00;99679.22;;;13.31;79.17
19210;BME280;9738;51.654;14.238;2023-04-23T04:29:27;99679.66;;;13.35;79.63
19210;BME280;9738;51.654;14.238;2023-04-23T04:31:53;99676.78;;;13.36;79.49
19210;BME280;9738;51.654;14.238;2023-04-23T04:34:20;99675.19;;;13.42;78.96
19210;BME280;9738;51.654;14.238;2023-04-23T04:36:46;99675.84;;;13.44;78.82
19210;BME280;9738;51.654;14.238;2023-04-23T04:39:12;99682.13;;;13.51;79.21
19210;BME280;9738;51.654;14.238;2023-04-23T04:41:39;99672.84;;;13.53;78.76
19210;BME280;9738;51.654;14.238;2023-04-23T04:44:06;99671.25;;;13.59;78.71
19210;BME280;9738;51.654;14.238;2023-04-23T04:46:35;99676.69;;;13.66;78.60
19210;BME280;9738;51.654;14.238;2023-04-23T04:49:09;99674.28;;;13.71;78.09
19210;BME280;9738;51.654;14.238;2023-04-23T04:51:37;99677.66;;;13.79;77.96
19210;BME280;9738;51.654;14.238;2023-04-23T04:54:03;99671.38;;;13.87;78.88
19210;BME280;9738;51.654;14.238;2023-04-23T04:56:29;99667.06;;;13.93;79.20
19210;BME280;9738;51.654;14.238;2023-04-23T04:58:56;99665.31;;;14.00;78.45
19210;BME280;9738;51.654;14.238;2023-04-23T05:01:22;99665.47;;;13.98;78.36
19210;BME280;9738;51.654;14.238;2023-04-23T05:03:49;99670.91;;;14.05;77.44
19210;BME280;9738;51.654;14.238;2023-04-23T05:06:15;99674.47;;;14.12;77.53
19210;BME280;9738;51.654;14.238;2023-04-23T05:08:42;99666.41;;;14.12;76.83
19210;BME280;9738;51.654;14.238;2023-04-23T05:11:13;99665.22;;;14.15;77.45
19210;BME280;9738;51.654;14.238;2023-04-23T05:13:40;99671.88;;;14.19;77.46
19210;BME280;9738;51.654;14.238;2023-04-23T05:16:06;99666.09;;;14.22;76.75
19210;BME280;9738;51.654;14.238;2023-04-23T05:18:32;99660.41;;;14.31;77.70
19210;BME280;9738;51.654;14.238;2023-04-23T05:20:59;99664.81;;;14.39;76.48
19210;BME280;9738;51.654;14.238;2023-04-23T05:23:24;99657.25;;;14.49;78.26
19210;BME280;9738;51.654;14.238;2023-04-23T05:25:50;99658.31;;;14.55;75.97
19210;BME280;9738;51.654;14.238;2023-04-23T05:28:18;99657.78;;;14.66;77.85
19210;BME280;9738;51.654;14.238;2023-04-23T05:30:43;99652.44;;;14.73;75.74
19210;BME280;9738;51.654;14.238;2023-04-23T05:33:09;99657.41;;;14.76;76.12
19210;BME280;9738;51.654;14.238;2023-04-23T05:35:37;99648.56;;;14.82;76.79
19210;BME280;9738;51.654;14.238;2023-04-23T05:38:03;99654.44;;;14.92;76.23
19210;BME280;9738;51.654;14.238;2023-04-23T05:40:31;99660.44;;;14.94;76.12
19210;BME280;9738;51.654;14.238;2023-04-23T05:42:57;99665.81;;;14.94;74.61
19210;BME280;9738;51.654;14.238;2023-04-23T05:45:23;99663.13;;;14.94;72.94
19210;BME280;9738;51.654;14.238;2023-04-23T05:47:49;99664.81;;;14.95;72.71
19210;BME280;9738;51.654;14.238;2023-04-23T05:50:18;99661.91;;;14.97;72.17
19210;BME280;9738;51.654;14.238;2023-04-23T05:52:44;99658.19;;;14.98;72.36
19210;BME280;9738;51.654;14.238;2023-04-23T05:55:10;99662.97;;;15.02;73.43
19210;BME280;9738;51.654;14.238;2023-04-23T05:57:37;99665.50;;;15.10;74.09
19210;BME280;9738;51.654;14.238;2023-04-23T06:00:04;99675.88;;;15.20;72.98
19210;BME280;9738;51.654;14.238;2023-04-23T06:02:30;99676.78;;;15.34;71.63
19210;BME280;9738;51.654;14.238;2023-04-23T06:04:58;99679.69;;;15.39;72.17
19210;BME280;9738;51.654;14.238;2023-04-23T06:07:24;99678.47;;;15.41;70.54
19210;BME280;9738;51.654;14.238;2023-04-23T06:09:50;99684.06;;;15.47;70.62
19210;BME280;9738;51.654;14.238;2023-04-23T06:12:16;99684.28;;;15.52;70.41
19210;BME280;9738;51.654;14.238;2023-04-23T06:14:42;99681.59;;;15.52;69.91
19210;BME280;9738;51.654;14.238;2023-04-23T06:17:08;99672.91;;;15.56;70.13
19210;BME280;9738;51.654;14.238;2023-04-23T06:19:34;99673.13;;;15.61;69.85
19210;BME280;9738;51.654;14.238;2023-04-23T06:22:00;99671.13;;;15.77;70.40
19210;BME280;9738;51.654;14.238;2023-04-23T06:24:26;99673.84;;;15.90;67.65
19210;BME280;9738;51.654;14.238;2023-04-23T06:26:52;99671.38;;;15.95;69.23
19210;BME280;9738;51.654;14.238;2023-04-23T06:29:18;99675.53;;;15.98;69.15
19210;BME280;9738;51.654;14.238;2023-04-23T06:31:43;99668.31;;;16.11;66.72
19210;BME280;9738;51.654;14.238;2023-04-23T06:34:10;99678.03;;;16.32;66.27
19210;BME280;9738;51.654;14.238;2023-04-23T06:36:36;99678.25;;;16.51;64.81
19210;BME280;9738;51.654;14.238;2023-04-23T06:39:01;99672.88;;;16.70;64.60
19210;BME280;9738;51.654;14.238;2023-04-23T06:41:28;99670.97;;;16.91;64.72
19210;BME280;9738;51.654;14.238;2023-04-23T06:43:54;99672.59;;;17.05;64.32
19210;BME280;9738;51.654;14.238;2023-04-23T06:46:19;99669.84;;;17.18;63.87
19210;BME280;9738;51.654;14.238;2023-04-23T06:48:46;99673.16;;;17.20;63.51
19210;BME280;9738;51.654;14.238;2023-04-23T06:51:11;99667.28;;;17.30;63.29
19210;BME280;9738;51.654;14.238;2023-04-23T06:53:37;99670.97;;;17.42;62.57
19210;BME280;9738;51.654;14.238;2023-04-23T06:56:04;99668.91;;;17.44;61.93
19210;BME280;9738;51.654;14.238;2023-04-23T06:58:30;99666.84;;;17.40;61.47
19210;BME280;9738;51.654;14.238;2023-04-23T07:00:57;99669.38;;;17.35;61.24
19210;BME280;9738;51.654;14.238;2023-04-23T07:03:29;99667.91;;;17.39;64.43
19210;BME280;9738;51.654;14.238;2023-04-23T07:05:58;99677.22;;;17.43;63.97
19210;BME280;9738;51.654;14.238;2023-04-23T07:08:24;99666.41;;;17.43;63.80
19210;BME280;9738;51.654;14.238;2023-04-23T07:10:50;99672.44;;;17.45;64.29
19210;BME280;9738;51.654;14.238;2023-04-23T07:13:17;99673.94;;;17.34;62.91
19210;BME280;9738;51.654;14.238;2023-04-23T07:15:43;99666.88;;;17.33;61.97
19210;BME280;9738;51.654;14.238;2023-04-23T07:18:09;99668.09;;;17.44;63.35
19210;BME280;9738;51.654;14.238;2023-04-23T07:20:36;99656.78;;;17.60;64.22
19210;BME280;9738;51.654;14.238;2023-04-23T07:23:02;99664.75;;;17.87;62.72
19210;BME280;9738;51.654;14.238;2023-04-23T07:25:29;99666.25;;;17.82;61.70
19210;BME280;9738;51.654;14.238;2023-04-23T07:27:56;99667.38;;;18.00;61.69
19210;BME280;9738;51.654;14.238;2023-04-23T07:30:23;99670.44;;;18.10;61.21
19210;BME280;9738;51.654;14.238;2023-04-23T07:32:49;99660.78;;;18.21;60.82
19210;BME280;9738;51.654;14.238;2023-04-23T07:35:15;99659.69;;;18.28;60.62
19210;BME280;9738;51.654;14.238;2023-04-23T07:37:41;99665.03;;;18.10;60.82
19210;BME280;9738;51.654;14.238;2023-04-23T07:40:08;99666.84;;;17.85;62.09
19210;BME280;9738;51.654;14.238;2023-04-23T07:42:33;99669.00;;;17.69;62.53
19210;BME280;9738;51.654;14.238;2023-04-23T07:45:00;99663.00;;;17.61;64.23
19210;BME280;9738;51.654;14.238;2023-04-23T07:47:26;99664.25;;;17.65;65.36
19210;BME280;9738;51.654;14.238;2023-04-23T07:49:52;99672.56;;;17.63;65.05
19210;BME280;9738;51.654;14.238;2023-04-23T07:52:18;99675.03;;;17.71;64.39
19210;BME280;9738;51.654;14.238;2023-04-23T07:54:44;99674.88;;;17.53;64.62
19210;BME280;9738;51.654;14.238;2023-04-23T07:57:10;99671.78;;;17.56;65.63
19210;BME280;9738;51.654;14.238;2023-04-23T07:59:36;99672.19;;;17.53;65.33
19210;BME280;9738;51.654;14.238;2023-04-23T08:02:04;99674.28;;;17.51;67.03
19210;BME280;9738;51.654;14.238;2023-04-23T08:04:30;99682.84;;;17.35;66.34
19210;BME280;9738;51.654;14.238;2023-04-23T08:06:56;99679.75;;;17.38;67.93
19210;BME280;9738;51.654;14.238;2023-04-23T08:09:24;99686.00;;;17.32;67.52
19210;BME280;9738;51.654;14.238;2023-04-23T08:11:50;99684.16;;;17.25;68.71
19210;BME280;9738;51.654;14.238;2023-04-23T08:14:17;99687.03;;;17.31;67.67
19210;BME280;9738;51.654;14.238;2023-04-23T08:16:43;99692.63;;;17.29;69.76
19210;BME280;9738;51.654;14.238;2023-04-23T08:19:09;99699.50;;;17.32;70.29
19210;BME280;9738;51.654;14.238;2023-04-23T08:21:36;99697.19;;;17.35;70.03
19210;BME280;9738;51.654;14.238;2023-04-23T08:24:02;99695.56;;;17.27;69.20
19210;BME280;9738;51.654;14.238;2023-04-23T08:26:29;99699.31;;;17.20;70.04
19210;BME280;9738;51.654;14.238;2023-04-23T08:28:55;99697.66;;;17.19;71.00
19210;BME280;9738;51.654;14.238;2023-04-23T08:31:22;99713.03;;;17.18;70.67
19210;BME280;9738;51.654;14.238;2023-04-23T08:33:48;99715.50;;;17.26;71.90
19210;BME280;9738;51.654;14.238;2023-04-23T08:36:13;99710.50;;;17.23;71.19
19210;BME280;9738;51.654;14.238;2023-04-23T08:38:40;99719.06;;;17.07;72.13
19210;BME280;9738;51.654;14.238;2023-04-23T08:41:09;99726.56;;;16.79;73.42
19210;BME280;9738;51.654;14.238;2023-04-23T08:46:17;99741.06;;;16.38;76.39
19210;BME280;9738;51.654;14.238;2023-04-23T08:48:44;99745.81;;;16.16;77.74
19210;BME280;9738;51.654;14.238;2023-04-23T08:51:12;99747.84;;;16.07;79.35
19210;BME280;9738;51.654;14.238;2023-04-23T08:53:43;99737.50;;;16.04;80.69
19210;BME280;9738;51.654;14.238;2023-04-23T08:56:09;99741.44;;;16.08;82.00
19210;BME280;9738;51.654;14.238;2023-04-23T08:58:36;99745.81;;;16.16;81.55
19210;BME280;9738;51.654;14.238;2023-04-23T09:01:03;99742.13;;;16.37;81.69
19210;BME280;9738;51.654;14.238;2023-04-23T09:03:29;99739.22;;;16.58;81.98
19210;BME280;9738;51.654;14.238;2023-04-23T09:05:55;99747.97;;;16.73;79.61
19210;BME280;9738;51.654;14.238;2023-04-23T09:08:22;99752.47;;;16.66;78.66
19210;BME280;9738;51.654;14.238;2023-04-23T09:10:49;99748.34;;;16.64;77.87
19210;BME280;9738;51.654;14.238;2023-04-23T09:13:16;99757.47;;;16.56;78.57
19210;BME280;9738;51.654;14.238;2023-04-23T09:15:44;99744.19;;;16.61;78.71
19210;BME280;9738;51.654;14.238;2023-04-23T09:18:10;99750.22;;;16.77;77.46
19210;BME280;9738;51.654;14.238;2023-04-23T09:20:35;99745.22;;;17.13;80.33
19210;BME280;9738;51.654;14.238;2023-04-23T09:23:06;99742.44;;;17.40;75.07
19210;BME280;9738;51.654;14.238;2023-04-23T09:25:32;99746.75;;;17.54;74.83
19210;BME280;9738;51.654;14.238;2023-04-23T09:27:58;99751.19;;;17.87;74.56
19210;BME280;9738;51.654;14.238;2023-04-23T09:30:26;99746.44;;;17.89;73.17
19210;BME280;9738;51.654;14.238;2023-04-23T09:32:52;99740.81;;;18.22;71.89
19210;BME280;9738;51.654;14.238;2023-04-23T09:35:18;99747.09;;;18.47;72.63
19210;BME280;9738;51.654;14.238;2023-04-23T09:37:47;99729.72;;;18.61;71.27
19210;BME280;9738;51.654;14.238;2023-04-23T09:40:15;99726.69;;;18.76;71.35
19210;BME280;9738;51.654;14.238;2023-04-23T09:42:46;99727.16;;;18.73;68.64
19210;BME280;9738;51.654;14.238;2023-04-23T09:45:13;99730.25;;;18.77;68.55
19210;BME280;9738;51.654;14.238;2023-04-23T09:47:41;99731.00;;;18.59;70.07
19210;BME280;9738;51.654;14.238;2023-04-23T09:50:12;99726.63;;;18.58;69.36
19210;BME280;9738;51.654;14.238;2023-04-23T09:52:39;99729.03;;;18.73;70.53
19210;BME280;9738;51.654;14.238;2023-04-23T09:55:06;99739.03;;;18.72;70.64
19210;BME280;9738;51.654;14.238;2023-04-23T09:57:36;99738.38;;;18.45;69.98
19210;BME280;9738;51.654;14.238;2023-04-23T10:00:18;99737.69;;;18.25;70.28
19210;BME280;9738;51.654;14.238;2023-04-23T10:02:46;99726.72;;;18.13;71.68
19210;BME280;9738;51.654;14.238;2023-04-23T10:05:20;99733.94;;;17.88;72.80
19210;BME280;9738;51.654;14.238;2023-04-23T10:07:47;99734.00;;;17.68;72.50
19210;BME280;9738;51.654;14.238;2023-04-23T10:10:15;99736.59;;;17.56;75.13
19210;BME280;9738;51.654;14.238;2023-04-23T10:12:41;99740.75;;;17.52;75.68
19210;BME280;9738;51.654;14.238;2023-04-23T10:15:09;99742.44;;;17.40;74.99
19210;BME280;9738;51.654;14.238;2023-04-23T10:17:37;99740.38;;;17.28;75.01
19210;BME280;9738;51.654;14.238;2023-04-23T10:20:04;99741.19;;;17.36;77.79
19210;BME280;9738;51.654;14.238;2023-04-23T10:22:32;99737.47;;;17.30;77.34
19210;BME280;9738;51.654;14.238;2023-04-23T10:25:03;99740.38;;;17.35;77.44
19210;BME280;9738;51.654;14.238;2023-04-23T10:27:30;99737.50;;;17.23;76.25
19210;BME280;9738;51.654;14.238;2023-04-23T10:29:58;99734.63;;;17.18;77.00
19210;BME280;9738;51.654;14.238;2023-04-23T10:32:26;99734.59;;;17.25;76.63
19210;BME280;9738;51.654;14.238;2023-04-23T10:34:52;99737.88;;;17.34;77.36
19210;BME280;9738;51.654;14.238;2023-04-23T10:37:19;99734.16;;;17.28;77.30
19210;BME280;9738;51.654;14.238;2023-04-23T10:39:49;99736.06;;;17.21;77.71
19210;BME280;9738;51.654;14.238;2023-04-23T10:42:18;99732.06;;;17.30;78.45
19210;BME280;9738;51.654;14.238;2023-04-23T10:44:46;99738.09;;;17.32;78.93
19210;BME280;9738;51.654;14.238;2023-04-23T10:47:13;99742.03;;;17.36;77.80
19210;BME280;9738;51.654;14.238;2023-04-23T10:49:40;99745.41;;;17.25;77.46
19210;BME280;9738;51.654;14.238;2023-04-23T10:52:17;99741.47;;;17.08;77.72
19210;BME280;9738;51.654;14.238;2023-04-23T10:54:56;99736.69;;;17.10;79.21
19210;BME280;9738;51.654;14.238;2023-04-23T10:57:24;99739.19;;;17.11;78.84
19210;BME280;9738;51.654;14.238;2023-04-23T10:59:52;99746.25;;;17.19;79.38
19210;BME280;9738;51.654;14.238;2023-04-23T11:02:19;99742.69;;;17.25;79.50
19210;BME280;9738;51.654;14.238;2023-04-23T11:04:52;99740.38;;;17.28;77.64
19210;BME280;9738;51.654;14.238;2023-04-23T11:07:18;99736.22;;;17.33;78.34
19210;BME280;9738;51.654;14.238;2023-04-23T11:09:48;99746.38;;;17.44;76.91
19210;BME280;9738;51.654;14.238;2023-04-23T11:14:50;99744.47;;;17.58;78.88
19210;BME280;9738;51.654;14.238;2023-04-23T11:17:21;99739.94;;;17.45;79.97
19210;BME280;9738;51.654;14.238;2023-04-23T11:22:36;99757.06;;;17.12;82.84
19210;BME280;9738;51.654;14.238;2023-04-23T11:25:04;99752.09;;;16.96;85.17
19210;BME280;9738;51.654;14.238;2023-04-23T11:27:37;99750.44;;;16.88;86.27
19210;BME280;9738;51.654;14.238;2023-04-23T11:30:04;99746.69;;;16.83;86.09
19210;BME280;9738;51.654;14.238;2023-04-23T11:32:31;99741.50;;;16.68;87.45
19210;BME280;9738;51.654;14.238;2023-04-23T11:34:58;99758.91;;;16.59;89.71
19210;BME280;9738;51.654;14.238;2023-04-23T11:37:24;99752.28;;;16.48;88.46
19210;BME280;9738;51.654;14.238;2023-04-23T11:39:50;99759.31;;;16.36;88.45
19210;BME280;9738;51.654;14.238;2023-04-23T11:42:17;99756.41;;;16.24;88.04
19210;BME280;9738;51.654;14.238;2023-04-23T11:44:46;99747.06;;;16.33;88.01
19210;BME280;9738;51.654;14.238;2023-04-23T11:47:14;99747.28;;;16.32;87.30
19210;BME280;9738;51.654;14.238;2023-04-23T11:49:44;99751.84;;;16.25;87.21
19210;BME280;9738;51.654;14.238;2023-04-23T11:52:11;99745.41;;;16.32;87.87
19210;BME280;9738;51.654;14.238;2023-04-23T11:54:39;99738.16;;;16.33;87.20
19210;BME280;9738;51.654;14.238;2023-04-23T11:57:05;99741.69;;;16.33;87.41
19210;BME280;9738;51.654;14.238;2023-04-23T11:59:31;99746.03;;;16.41;86.40
19210;BME280;9738;51.654;14.238;2023-04-23T12:01:58;99742.50;;;16.54;87.38
19210;BME280;9738;51.654;14.238;2023-04-23T12:04:27;99748.78;;;16.81;87.24
19210;BME280;9738;51.654;14.238;2023-04-23T12:06:54;99744.22;;;16.88;85.90
19210;BME280;9738;51.654;14.238;2023-04-23T12:09:21;99755.41;;;16.78;86.24
19210;BME280;9738;51.654;14.238;2023-04-23T12:11:48;99759.56;;;16.61;87.31
19210;BME280;9738;51.654;14.238;2023-04-23T12:14:19;99752.69;;;16.58;88.84
19210;BME280;9738;51.654;14.238;2023-04-23T12:16:49;99765.78;;;16.55;89.38
19210;BME280;9738;51.654;14.238;2023-04-23T12:19:18;99774.84;;;16.47;90.75
19210;BME280;9738;51.654;14.238;2023-04-23T12:22:01;99774.00;;;16.27;89.62
19210;BME280;9738;51.654;14.238;2023-04-23T12:24:45;99775.84;;;16.13;92.35
19210;BME280;9738;51.654;14.238;2023-04-23T12:27:14;99775.41;;;16.09;93.43
19210;BME280;9738;51.654;14.238;2023-04-23T12:29:41;99777.69;;;16.06;92.08
19210;BME280;9738;51.654;14.238;2023-04-23T12:32:10;99776.84;;;15.99;93.03
19210;BME280;9738;51.654;14.238;2023-04-23T12:34:36;99775.38;;;15.96;93.97
19210;BME280;9738;51.654;14.238;2023-04-23T12:37:05;99780.59;;;16.04;95.25
19210;BME280;9738;51.654;14.238;2023-04-23T12:39:34;99764.03;;;16.14;94.40
19210;BME280;9738;51.654;14.238;2023-04-23T12:42:04;99762.00;;;16.16;92.77
19210;BME280;9738;51.654;14.238;2023-04-23T12:44:33;99761.19;;;16.29;92.85
19210;BME280;9738;51.654;14.238;2023-04-23T12:49:30;99768.81;;;16.18;90.35
19210;BME280;9738;51.654;14.238;2023-04-23T12:51:58;99753.47;;;16.19;91.82
19210;BME280;9738;51.654;14.238;2023-04-23T12:54:29;99762.00;;;16.23;91.93
19210;BME280;9738;51.654;14.238;2023-04-23T12:56:57;99766.94;;;16.19;91.96
19210;BME280;9738;51.654;14.238;2023-04-23T12:59:23;99770.69;;;16.18;89.84
19210;BME280;9738;51.654;14.238;2023-04-23T13:01:50;99769.41;;;16.14;88.43
19210;BME280;9738;51.654;14.238;2023-04-23T13:04:16;99770.69;;;16.25;90.44
19210;BME280;9738;51.654;14.238;2023-04-23T13:06:42;99762.84;;;16.30;84.78
19210;BME280;9738;51.654;14.238;2023-04-23T13:09:08;99765.94;;;16.46;85.50